createdAt,value
2019-04-03T00:02:48.369Z,12.30
2019-04-03T00:07:47.952Z,12.30
2019-04-03T00:12:47.574Z,12.30
2019-04-03T00:17:47.143Z,12.30
2019-04-03T00:22:46.789Z,12.30
2019-04-03T00:27:46.649Z,12.40
2019-04-03T00:33:05.579Z,12.30
2019-04-03T00:38:05.193Z,12.40
2019-04-03T00:43:04.844Z,12.30
2019-04-03T00:48:04.442Z,12.30
2019-04-03T00:53:04.123Z,12.40
2019-04-03T00:58:36.402Z,12.40
2019-04-03T01:03:36.042Z,12.30
2019-04-03T01:08:35.662Z,12.20
2019-04-03T01:13:35.287Z,12.20
2019-04-03T01:18:35.468Z,12.20
2019-04-03T01:23:37.036Z,12.20
2019-04-03T01:28:36.486Z,12.10
2019-04-03T01:33:36.039Z,12.10
2019-04-03T01:38:35.654Z,12.10
2019-04-03T01:43:35.300Z,12.10
2019-04-03T01:48:34.862Z,12.10
2019-04-03T01:53:34.504Z,11.90
2019-04-03T01:58:34.677Z,11.90
2019-04-03T02:03:35.359Z,11.90
2019-04-03T02:08:34.899Z,11.80
2019-04-03T02:13:34.463Z,11.70
2019-04-03T02:18:34.066Z,11.80
2019-04-03T02:23:33.654Z,11.90
2019-04-03T02:28:34.935Z,11.80
2019-04-03T02:33:34.540Z,11.70
2019-04-03T02:38:34.249Z,11.60
2019-04-03T02:43:34.163Z,11.60
2019-04-03T02:48:37.225Z,11.70
2019-04-03T02:53:35.614Z,11.70
2019-04-03T02:58:35.185Z,11.60
2019-04-03T03:03:34.744Z,11.50
2019-04-03T03:08:34.617Z,11.40
2019-04-03T03:13:35.399Z,11.50
2019-04-03T03:18:35.919Z,11.40
2019-04-03T03:23:35.925Z,11.30
2019-04-03T03:28:36.094Z,11.40
2019-04-03T03:33:39.284Z,11.40
2019-04-03T03:38:39.461Z,11.30
2019-04-03T03:43:39.197Z,11.30
2019-04-03T03:48:43.606Z,11.30
2019-04-03T03:53:44.514Z,11.30
2019-04-03T03:58:45.684Z,11.30
2019-04-03T04:03:45.789Z,11.20
2019-04-03T04:08:45.839Z,11.20
2019-04-03T04:13:48.486Z,11.20
2019-04-03T04:18:46.989Z,11.20
2019-04-03T04:23:47.755Z,11.20
2019-04-03T04:28:47.602Z,11.20
2019-04-03T04:33:47.995Z,11.10
2019-04-03T04:38:48.046Z,11.10
2019-04-03T04:43:47.630Z,11.20
2019-04-03T04:48:47.187Z,11.20
2019-04-03T04:53:46.895Z,11.10
2019-04-03T04:58:46.463Z,11.00
2019-04-03T05:03:46.261Z,11.20
2019-04-03T05:08:45.927Z,11.20
2019-04-03T05:13:46.778Z,11.20
2019-04-03T05:18:47.136Z,11.20
2019-04-03T05:23:47.182Z,11.30
2019-04-03T05:28:55.663Z,11.30
2019-04-03T05:33:48.026Z,11.40
2019-04-03T05:38:47.795Z,11.40
2019-04-03T05:43:47.351Z,11.40
2019-04-03T05:48:47.986Z,11.40
2019-04-03T05:53:48.265Z,11.50
2019-04-03T05:58:55.494Z,11.40
2019-04-03T06:03:49.079Z,11.50
2019-04-03T06:08:50.891Z,11.50
2019-04-03T06:13:49.911Z,11.50
2019-04-03T06:18:49.483Z,11.60
2019-04-03T06:23:49.156Z,11.80
2019-04-03T06:28:48.724Z,11.90
2019-04-03T06:33:51.003Z,12.00
2019-04-03T06:38:49.544Z,11.90
2019-04-03T06:43:50.131Z,12.20
2019-04-03T06:48:50.373Z,12.40
2019-04-03T06:53:50.013Z,12.40
2019-04-03T06:58:49.620Z,12.40
2019-04-03T07:03:50.181Z,12.50
2019-04-03T07:09:21.307Z,12.60
2019-04-03T07:14:10.243Z,12.70
2019-04-03T07:19:09.879Z,12.90
2019-04-03T07:24:09.722Z,13.10
2019-04-03T07:29:11.469Z,13.00
2019-04-03T07:34:10.847Z,13.00
2019-04-03T07:39:11.177Z,13.30
2019-04-03T07:44:11.198Z,13.80
2019-04-03T07:49:13.666Z,14.00
2019-04-03T07:54:12.063Z,14.00
2019-04-03T07:59:11.787Z,14.00
2019-04-03T08:04:11.549Z,14.30
2019-04-03T08:09:11.190Z,14.50
2019-04-03T08:14:11.056Z,14.60
2019-04-03T08:19:10.721Z,14.60
2019-04-03T08:24:10.737Z,14.90
2019-04-03T08:29:10.395Z,15.30
2019-04-03T08:34:16.679Z,15.30
2019-04-03T08:39:11.589Z,15.40
2019-04-03T08:44:11.271Z,15.70
2019-04-03T08:49:10.810Z,16.20
2019-04-03T08:54:11.326Z,16.70
2019-04-03T08:59:12.887Z,16.80
2019-04-03T09:04:12.696Z,17.20
2019-04-03T09:09:12.716Z,17.50
2019-04-03T09:14:12.839Z,17.80
2019-04-03T09:19:12.567Z,18.70
2019-04-03T09:24:12.540Z,19.00
2019-04-03T09:29:13.594Z,19.70
2019-04-03T09:34:13.465Z,20.30
2019-04-03T09:39:14.565Z,20.60
2019-04-03T09:44:14.389Z,20.20
2019-04-03T09:49:14.202Z,20.10
2019-04-03T09:54:14.075Z,21.10
2019-04-03T09:59:15.435Z,21.80
2019-04-03T10:04:15.182Z,22.10
2019-04-03T10:09:14.771Z,22.80
2019-04-03T10:14:14.355Z,22.00
2019-04-03T10:19:14.662Z,21.80
2019-04-03T10:24:14.830Z,21.70
2019-04-03T10:29:17.043Z,21.20
2019-04-03T10:34:17.135Z,20.40
2019-04-03T10:39:19.487Z,20.20
2019-04-03T10:44:18.391Z,19.90
2019-04-03T10:49:19.018Z,20.30
2019-04-03T10:54:18.600Z,20.60
2019-04-03T10:59:18.965Z,20.70
2019-04-03T11:04:18.706Z,20.70
2019-04-03T11:09:18.287Z,20.90
2019-04-03T11:14:17.942Z,21.60
2019-04-03T11:19:19.554Z,21.80
2019-04-03T11:24:19.075Z,22.40
2019-04-03T11:29:19.305Z,22.90
2019-04-03T11:34:19.299Z,23.10
2019-04-03T11:39:19.052Z,22.90
2019-04-03T11:44:18.817Z,22.60
2019-04-03T11:49:20.007Z,21.90
2019-04-03T11:54:19.713Z,21.40
2019-04-03T11:59:19.559Z,21.60
2019-04-03T12:04:19.818Z,22.40
2019-04-03T12:09:19.551Z,22.20
2019-04-03T12:14:19.124Z,22.50
2019-04-03T12:19:18.749Z,23.10
2019-04-03T12:24:18.377Z,23.10
2019-04-03T12:29:19.056Z,22.80
2019-04-03T12:34:19.202Z,22.30
2019-04-03T12:39:28.137Z,22.00
2019-04-03T12:44:27.980Z,21.90
2019-04-03T12:49:27.907Z,21.70
2019-04-03T12:54:27.999Z,21.60
2019-04-03T12:59:27.624Z,21.80
2019-04-03T13:04:30.226Z,21.50
2019-04-03T13:09:28.557Z,21.70
2019-04-03T13:14:33.479Z,21.50
2019-04-03T13:19:33.125Z,21.30
2019-04-03T13:24:32.686Z,21.40
2019-04-03T13:29:32.227Z,21.40
2019-04-03T13:34:32.607Z,21.10
2019-04-03T13:39:33.612Z,21.10
2019-04-03T13:44:34.024Z,21.10
2019-04-03T13:49:34.156Z,20.70
2019-04-03T13:54:33.874Z,20.50
2019-04-03T13:59:33.784Z,20.30
2019-04-03T14:04:33.466Z,20.90
2019-04-03T14:09:33.050Z,21.60
2019-04-03T14:14:32.799Z,21.60
2019-04-03T14:19:42.640Z,21.60
2019-04-03T14:24:40.107Z,21.60
2019-04-03T14:29:35.067Z,22.30
2019-04-03T14:34:34.608Z,22.90
2019-04-03T14:39:34.269Z,23.40
2019-04-03T14:44:34.110Z,23.60
2019-04-03T14:49:33.748Z,23.90
2019-04-03T14:54:33.592Z,23.90
2019-04-03T14:59:35.345Z,23.50
2019-04-03T15:04:37.130Z,23.10
2019-04-03T15:09:36.067Z,23.10
2019-04-03T15:14:35.773Z,23.30
2019-04-03T15:19:35.462Z,23.40
2019-04-03T15:24:35.024Z,23.20
2019-04-03T15:29:36.894Z,23.00
2019-04-03T15:34:35.841Z,23.30
2019-04-03T15:39:35.537Z,23.70
2019-04-03T15:44:35.174Z,23.70
2019-04-03T15:49:35.517Z,23.90
2019-04-03T15:54:35.261Z,23.50
2019-04-03T15:59:35.283Z,22.90
2019-04-03T16:04:34.942Z,23.40
2019-04-03T16:09:34.757Z,23.70
2019-04-03T16:14:34.456Z,25.00
2019-04-03T16:19:34.023Z,25.80
2019-04-03T16:24:33.900Z,26.00
2019-04-03T16:29:35.113Z,25.90
2019-04-03T16:34:34.694Z,25.50
2019-04-03T16:39:34.655Z,25.80
2019-04-03T16:44:34.286Z,26.30
2019-04-03T16:49:33.858Z,26.30
2019-04-03T16:54:33.852Z,24.70
2019-04-03T16:59:36.143Z,23.40
2019-04-03T17:04:36.089Z,22.40
2019-04-03T17:09:38.192Z,21.60
2019-04-03T17:14:37.879Z,20.90
2019-04-03T17:19:37.450Z,20.50
2019-04-03T17:24:44.041Z,20.30
2019-04-03T17:29:39.257Z,20.20
2019-04-03T17:34:41.978Z,20.10
2019-04-03T17:39:45.536Z,19.90
2019-04-03T17:44:46.130Z,19.70
2019-04-03T17:49:45.695Z,19.50
2019-04-03T17:54:45.263Z,19.40
2019-04-03T17:59:44.835Z,19.20
2019-04-03T18:04:44.555Z,19.10
2019-04-03T18:09:44.118Z,19.00
2019-04-03T18:14:43.755Z,18.70
2019-04-03T18:19:43.340Z,18.50
2019-04-03T18:24:42.898Z,18.50
2019-04-03T18:29:44.699Z,18.50
2019-04-03T18:34:43.755Z,18.30
2019-04-03T18:39:43.734Z,18.40
2019-04-03T18:44:44.373Z,18.30
2019-04-03T18:49:44.202Z,18.20
2019-04-03T18:54:45.137Z,18.20
2019-04-03T18:59:44.897Z,18.10
2019-04-03T19:04:45.030Z,17.90
2019-04-03T19:09:45.543Z,17.70
2019-04-03T19:14:45.127Z,17.60
2019-04-03T19:19:44.767Z,17.50
2019-04-03T19:24:44.379Z,17.50
2019-04-03T19:29:43.980Z,17.50
2019-04-03T19:34:44.346Z,17.30
2019-04-03T19:39:44.812Z,17.30
2019-04-03T19:44:44.464Z,17.30
2019-04-03T19:49:44.034Z,17.20
2019-04-03T19:54:43.650Z,17.20
2019-04-03T19:59:43.216Z,17.00
2019-04-03T20:04:42.789Z,16.90
2019-04-03T20:09:42.399Z,16.80
2019-04-03T20:14:43.695Z,16.80
2019-04-03T20:19:44.331Z,16.70
2019-04-03T20:24:44.299Z,16.70
2019-04-03T20:29:43.929Z,16.60
2019-04-03T20:34:45.168Z,16.60
2019-04-03T20:45:07.208Z,16.60
2019-04-03T20:50:07.918Z,16.60
2019-04-03T20:55:08.086Z,16.60
2019-04-03T21:00:12.667Z,16.60
2019-04-03T21:05:12.355Z,16.70
2019-04-03T21:10:12.202Z,16.60
2019-04-03T21:15:14.241Z,16.60
2019-04-03T21:20:13.552Z,16.60
2019-04-03T21:25:13.173Z,16.50
2019-04-03T21:30:13.839Z,16.50
2019-04-03T21:35:13.410Z,16.50
2019-04-03T21:40:15.265Z,16.40
2019-04-03T21:45:14.596Z,16.30
2019-04-03T21:50:14.569Z,16.30
2019-04-03T21:55:14.158Z,16.30
2019-04-03T22:00:18.746Z,16.10
2019-04-03T22:05:20.007Z,16.10
2019-04-03T22:10:20.668Z,16.00
2019-04-03T22:15:20.283Z,16.00
2019-04-03T22:20:19.861Z,15.90
2019-04-03T22:25:19.471Z,15.80
2019-04-03T22:30:19.981Z,15.80
2019-04-03T22:35:20.493Z,15.70
2019-04-03T22:40:20.088Z,15.70
2019-04-03T22:45:20.088Z,15.60
2019-04-03T22:50:20.261Z,15.50
2019-04-03T22:55:19.829Z,15.50
2019-04-03T23:00:19.543Z,15.50
2019-04-03T23:05:19.166Z,15.40
2019-04-03T23:10:19.518Z,15.30
2019-04-03T23:15:19.047Z,15.30
2019-04-03T23:20:20.149Z,15.20
2019-04-03T23:25:19.920Z,15.10
2019-04-03T23:30:19.623Z,15.20
2019-04-03T23:35:20.518Z,14.90
2019-04-03T23:40:20.565Z,15.00
2019-04-03T23:45:21.035Z,14.90
2019-04-03T23:50:21.902Z,14.90
2019-04-03T23:55:21.857Z,14.80
